Flight Track Log - Related Links

Times and Time Zones

All times are in EDT time to prevent confusion due to time zone crossing. See the EJA941 flight status page for this flight to view local times or setup timezone preferences in your user account.


Time Position Orientation Groundspeed Altitude Reporting Facility
EDT Latitude Longitude Course Direction KTS MPH feet Rate Location/Type
Sun 07:04:00 PM 37.7707 -76.2735 215° Southwest  Level Estimated
Sun 07:05:00 PM 37.6798 -76.3486 213° Southwest  Level Estimated
Sun 07:06:00 PM 37.5889 -76.4235 213° Southwest  Level Estimated
Sun 07:07:00 PM 37.4979 -76.4982 213° Southwest  Level Estimated
Sun 07:08:00 PM 37.4069 -76.5727 213° Southwest  Level Estimated
Sun 07:09:00 PM 37.3168 -76.6463 213° Southwest  Level Estimated
Sun 07:10:00 PM 37.2268 -76.7196 213° Southwest  Level Estimated
Sun 07:11:00 PM 37.1366 -76.7928 213° Southwest  Level Estimated
Sun 07:12:00 PM 37.0464 -76.8658 213° Southwest  Level Estimated
Sun 07:13:00 PM 36.9562 -76.9386 213° Southwest  Level Estimated
Sun 07:14:00 PM 36.8659 -77.0113 213° Southwest  Level Estimated
Sun 07:15:00 PM 36.7756 -77.0837 213° Southwest  Level Estimated
Sun 07:16:00 PM 36.6853 -77.1561 213° Southwest  Level Estimated
Sun 07:17:00 PM 36.5949 -77.2282 213° Southwest  Level Estimated
Sun 07:18:00 PM 36.5044 -77.3002 213° Southwest  Level Estimated
Sun 07:19:00 PM 36.4139 -77.3720 213° Southwest  Level Estimated
Sun 07:20:00 PM 36.3234 -77.4436 213° Southwest  Level Estimated
Sun 07:21:00 PM 36.2328 -77.5151 212° Southwest  Level Estimated
Sun 07:22:00 PM 36.1422 -77.5864 212° Southwest  Level Estimated
Sun 07:23:00 PM 36.0516 -77.6575 212° Southwest  Level Estimated
Sun 07:24:00 PM 35.9608 -77.7285 212° Southwest  Level Estimated
Sun 07:25:00 PM 35.8701 -77.7993 212° Southwest  Level Estimated
Sun 07:26:00 PM 35.7793 -77.8700 212° Southwest  Level Estimated
Sun 07:27:00 PM 35.6897 -77.9396 212° Southwest  Level Estimated
Sun 07:28:00 PM 35.6001 -78.0090 212° Southwest  Level Estimated
Sun 07:29:00 PM 35.5103 -78.0782 212° Southwest  Level Estimated
Sun 07:30:00 PM 35.4206 -78.1473 212° Southwest  Level Estimated
Sun 07:31:00 PM 35.3308 -78.2162 212° Southwest  Level Estimated
Sun 07:32:00 PM 35.2410 -78.2850 212° Southwest  Level Estimated
Sun 07:33:00 PM 35.1511 -78.3537 212° Southwest  Level Estimated
Sun 07:34:00 PM 35.0613 -78.4222 212° Southwest  Level Estimated
Sun 07:35:00 PM 34.9713 -78.4905 212° Southwest  Level Estimated
Sun 07:36:00 PM 34.8814 -78.5587 212° Southwest  Level Estimated
Sun 07:37:00 PM 34.7914 -78.6267 212° Southwest  Level Estimated
Sun 07:38:00 PM 34.7013 -78.6946 212° Southwest  Level Estimated
Sun 07:39:00 PM 34.6112 -78.7623 212° Southwest  Level Estimated
Sun 07:40:00 PM 34.5239 -78.8278 212° Southwest  Level Estimated
Sun 07:41:00 PM 34.4365 -78.8932 212° Southwest  Level Estimated
Sun 07:42:00 PM 34.3491 -78.9584 212° Southwest  Level Estimated
Sun 07:43:00 PM 34.2616 -79.0235 212° Southwest  Level Estimated
Sun 07:44:00 PM 34.1741 -79.0885 212° Southwest  Level Estimated
Sun 07:45:00 PM 34.0866 -79.1533 212° Southwest  Level Estimated
Sun 07:46:00 PM 33.9991 -79.2180 211° Southwest  Level Estimated
Sun 07:47:00 PM 33.9069 -79.2780 208° Southwest  Level FlightAware Approximate
Sun 07:48:00 PM 33.8147 -79.3379 208° Southwest  Level FlightAware Approximate
Sun 07:49:00 PM 33.7224 -79.3977 208° Southwest  Level FlightAware Approximate
Sun 07:50:00 PM 33.6302 -79.4573 208° Southwest  Level FlightAware Approximate
Sun 07:51:00 PM 33.5379 -79.5168 208° Southwest  Level FlightAware Approximate
Sun 07:52:00 PM 33.4588 -79.5993 221° Southwest  Level FlightAware Approximate
Sun 07:53:00 PM 33.3797 -79.6816 221° Southwest  Level FlightAware Approximate
Sun 07:54:00 PM 33.3006 -79.7637 221° Southwest  Level FlightAware Approximate
Sun 07:55:00 PM 33.2105 -79.8277 206° Southwest  Level Estimated
Sun 07:56:00 PM 33.1178 -79.8861 208° Southwest  Level FlightAware Approximate
Sun 07:57:00 PM 33.0251 -79.9444 208° Southwest  Level FlightAware Approximate
Sun 07:58:00 PM 32.9324 -80.0026 208° Southwest  Level FlightAware Approximate
Sun 07:59:00 PM 32.8425 -80.0667 211° Southwest  Level Estimated
Sun 08:00:00 PM 32.7509 -80.1273 209° Southwest  Level FlightAware Approximate
Sun 08:01:00 PM 32.6610 -80.1912 217° Southwest  Level Estimated
Sun 08:02:00 PM 32.5803 -80.2706 220° Southwest  Level FlightAware Approximate
Sun 08:03:00 PM 32.4900 -80.3335 203° Southwest  Level Estimated
Sun 08:04:00 PM 32.3996 -80.3963 215° Southwest  Level Estimated
Sun 08:05:00 PM 32.3092 -80.4590 216° Southwest  Level Estimated
Sun 08:06:00 PM 32.2187 -80.5216 212° Southwest  Level Estimated
Sun 08:07:00 PM 32.1372 -80.5994 219° Southwest  Level FlightAware Approximate
Sun 08:08:00 PM 32.0463 -80.6608 213° Southwest  Level Estimated
Sun 08:09:00 PM 31.9646 -80.7381 219° Southwest  Level FlightAware Approximate
Sun 08:10:00 PM 31.8730 -80.7982 213° Southwest  Level Estimated
Sun 08:11:00 PM 31.7915 -80.8756 219° Southwest  Level FlightAware Approximate
Sun 08:12:00 PM 31.6965 -80.9450 213° Southwest  Level FlightAware Approximate
Sun 08:13:00 PM 31.6089 -81.0125 213° Southwest  Level FlightAware Approximate
Sun 08:14:00 PM 31.5212 -81.0798 213° Southwest  Level FlightAware Approximate
Sun 08:15:00 PM 31.4312 -81.1417 214° Southwest  Level FlightAware Approximate
Sun 08:16:00 PM 31.3447 -81.2109 214° Southwest  Level FlightAware Approximate
Sun 08:17:00 PM 31.2571 -81.2782 213° Southwest  Level FlightAware Approximate
Sun 08:18:00 PM 31.1689 -81.3443 213° Southwest  Level FlightAware Approximate
Sun 08:19:00 PM 31.0807 -81.4104 213° Southwest  Level FlightAware Approximate
Sun 08:20:00 PM 30.9822 -81.4430 187° South  Level FlightAware Approximate
Sun 08:21:00 PM 30.8779 -81.4539 185° South  Level FlightAware Approximate
Sun 08:22:00 PM 30.7735 -81.4643 185° South  Level FlightAware Approximate
Sun 08:23:00 PM 30.6690 -81.4729 184° South  Level FlightAware Approximate
Sun 08:24:00 PM 30.5644 -81.4809 184° South  Level FlightAware Approximate
Sun 08:25:00 PM 30.4597 -81.4833 180° South  Level FlightAware Approximate
Sun 08:26:00 PM 30.3562 -81.5000 180° South  Level FlightAware Approximate
Sun 08:27:00 PM 30.3869 -81.5702 319° Northwest  Level FlightAware Approximate
Sun 08:28:00 PM 30.4618 -81.6547 311° West  Level FlightAware Approximate
Sun 08:29:00 PM 30.4833 -81.6833 311° West  Level FlightAware Approximate
Sun 08:30:00 PM 30.4941 -81.6879 311° West  Level Estimated
Sun 08:31:00 PM 30.4941 -81.6879 311° West  Level Estimated
Sun 08:32:00 PM 30.4941 -81.6879 311° West  Level Estimated
Sun 08:33:00 PM 30.4941 -81.6879 311° West  Level Estimated
Sun 08:34:00 PM 30.4941 -81.6879 311° West  Level Estimated
Sun 08:35:00 PM 30.4941 -81.6879 311° West  Level Estimated
Sun 08:36:00 PM 30.4941 -81.6879 311° West  Level Estimated
Sun 08:37:00 PM 30.4941 -81.6879 311° West  Level Estimated
Sun 08:38:00 PM 30.4941 -81.6879 311° West  Level Estimated
Sun 08:39:00 PM 30.4941 -81.6879 311° West  Level Estimated
Sun 08:40:00 PM 30.4941 -81.6879 311° West  Level Estimated
Sun 08:41:00 PM 30.4941 -81.6879 311° West  Level Estimated
Sun 08:42:00 PM 30.4941 -81.6879 311° West  Level Estimated
Sun 08:43:00 PM 30.4941 -81.6879 311° West  Level Estimated
Sun 08:44:00 PM 30.4941 -81.6879 311° West  Level Estimated
Sun 08:45:00 PM 30.4941 -81.6879 311° West  Level Estimated
Sun 08:46:00 PM 30.4941 -81.6879 311° West  Level Estimated
Sun 08:47:00 PM 30.4941 -81.6879 311° West  Level Estimated
Sun 08:48:00 PM 30.4941 -81.6879 311° West  Level Estimated
Sun 08:49:00 PM 30.4941 -81.6879 311° West  Level Estimated
Sun 08:50:00 PM 30.4941 -81.6879 311° West  Level Estimated
Sun 08:51:00 PM 30.4941 -81.6879 311° West  Level Estimated
Sun 08:52:00 PM 30.4941 -81.6879 311° West  Level Estimated
Sun 08:53:00 PM 30.4941 -81.6879 311° West  Level Estimated
Sun 08:54:00 PM 30.4941 -81.6879 311° West  Level Estimated
Sun 08:55:00 PM 30.4941 -81.6879 311° West  Level Estimated

Login

Don't have an account? Register now (free) for customized features, flight alerts, and more!